createdAt,value
2023-04-27T00:14:46.222Z,18.7
2023-04-27T00:34:46.182Z,18.7
2023-04-27T00:54:46.152Z,18.7
2023-04-27T01:14:46.145Z,18.7
2023-04-27T01:34:46.133Z,18.6
2023-04-27T01:54:46.121Z,18.6
2023-04-27T02:14:46.070Z,18.6
2023-04-27T02:34:46.025Z,18.5
2023-04-27T02:54:46.017Z,18.5
2023-04-27T03:14:45.990Z,18.5
2023-04-27T03:34:45.942Z,18.5
2023-04-27T03:54:46.068Z,18.6
2023-04-27T04:14:45.947Z,18.7
2023-04-27T04:34:45.924Z,18.8
2023-04-27T04:54:45.865Z,18.7
2023-04-27T05:14:45.853Z,19.0
2023-04-27T05:34:45.839Z,19.1
2023-04-27T05:54:45.812Z,19.1
2023-04-27T06:14:45.820Z,19.1
2023-04-27T06:34:45.732Z,19.1
2023-04-27T06:54:45.725Z,19.1
2023-04-27T07:14:45.717Z,19.1
2023-04-27T07:34:45.681Z,19.2
2023-04-27T07:54:45.702Z,19.3
2023-04-27T08:14:45.743Z,19.1
2023-04-27T08:34:45.608Z,19.2
2023-04-27T08:54:45.705Z,19.2
2023-04-27T09:14:45.567Z,19.2
2023-04-27T09:34:45.629Z,19.2
2023-04-27T09:54:45.483Z,19.2
2023-04-27T10:14:45.613Z,19.2
2023-04-27T10:34:45.416Z,19.1
2023-04-27T10:54:45.435Z,19.2
2023-04-27T11:14:45.427Z,19.4
2023-04-27T11:34:45.382Z,19.5
2023-04-27T11:54:45.339Z,19.3
2023-04-27T12:14:45.302Z,19.3
2023-04-27T12:34:45.391Z,19.2
2023-04-27T12:54:45.272Z,19.2
2023-04-27T13:14:45.290Z,19.2
2023-04-27T13:34:45.210Z,19.1
2023-04-27T13:54:45.266Z,19.1
2023-04-27T14:14:45.276Z,19.1
2023-04-27T14:34:45.128Z,19.1
2023-04-27T14:54:45.127Z,19.1
2023-04-27T15:14:45.123Z,19.0
2023-04-27T15:34:45.191Z,19.1
2023-04-27T15:54:45.068Z,19.1
2023-04-27T16:14:45.033Z,19.0
2023-04-27T16:34:45.058Z,19.0
2023-04-27T16:54:44.979Z,19.0
2023-04-27T17:14:44.969Z,19.0
2023-04-27T17:34:44.984Z,18.9
2023-04-27T17:54:44.916Z,18.9
2023-04-27T18:14:44.872Z,18.9
2023-04-27T18:34:44.982Z,18.9
2023-04-27T18:54:44.806Z,18.9
2023-04-27T19:14:44.912Z,19.0
2023-04-27T19:34:44.770Z,19.2
2023-04-27T19:54:44.721Z,19.3
2023-04-27T20:14:44.768Z,19.3
2023-04-27T20:34:44.707Z,19.3
2023-04-27T20:54:44.691Z,19.2
2023-04-27T21:14:44.629Z,19.1
2023-04-27T21:34:44.597Z,19.1
2023-04-27T21:54:44.617Z,19.0
2023-04-27T22:14:44.557Z,19.0
2023-04-27T22:34:44.576Z,19.0
2023-04-27T22:54:44.549Z,18.9
2023-04-27T23:14:44.476Z,18.9
2023-04-27T23:34:44.508Z,18.9
2023-04-27T23:54:44.475Z,18.9
